createdAt,value
2023-02-16T00:01:25.293Z,65.50
2023-02-16T00:03:54.433Z,65.50
2023-02-16T00:06:22.361Z,65.50
2023-02-16T00:08:52.073Z,65.50
2023-02-16T00:11:45.617Z,65.50
2023-02-16T00:14:14.942Z,65.50
2023-02-16T00:16:44.164Z,65.50
2023-02-16T00:19:21.576Z,65.40
2023-02-16T00:21:50.238Z,65.50
2023-02-16T00:24:18.433Z,65.50
2023-02-16T00:26:46.655Z,65.50
2023-02-16T00:29:19.762Z,66.20
2023-02-16T00:31:49.663Z,65.50
2023-02-16T00:34:29.816Z,65.50
2023-02-16T00:36:58.847Z,66.20
2023-02-16T00:39:27.975Z,65.50
2023-02-16T00:41:57.165Z,65.50
2023-02-16T00:44:31.814Z,65.50
2023-02-16T00:47:06.677Z,65.60
2023-02-16T00:49:34.446Z,65.60
2023-02-16T00:52:02.693Z,65.60
2023-02-16T00:54:31.916Z,65.60
2023-02-16T00:56:59.933Z,65.70
2023-02-16T00:59:28.171Z,65.70
2023-02-16T01:01:57.289Z,65.70
2023-02-16T01:04:26.696Z,65.70
2023-02-16T01:07:12.038Z,65.70
2023-02-16T01:09:57.282Z,65.70
2023-02-16T01:12:25.179Z,65.70
2023-02-16T01:14:56.187Z,66.40
2023-02-16T01:17:25.714Z,65.70
2023-02-16T01:19:57.624Z,65.70
2023-02-16T01:22:25.386Z,65.70
2023-02-16T01:24:53.184Z,65.60
2023-02-16T01:27:21.000Z,65.60
2023-02-16T01:29:48.799Z,65.70
2023-02-16T01:32:17.093Z,65.70
2023-02-16T01:34:45.010Z,65.70
2023-02-16T01:37:17.577Z,65.80
2023-02-16T01:39:45.735Z,65.80
2023-02-16T01:42:27.167Z,65.80
2023-02-16T01:45:00.075Z,65.80
2023-02-16T01:47:37.719Z,65.80
2023-02-16T01:50:17.590Z,65.80
2023-02-16T01:52:53.889Z,65.80
2023-02-16T01:55:25.106Z,65.80
2023-02-16T01:58:00.651Z,65.90
2023-02-16T02:00:30.680Z,65.90
2023-02-16T02:03:21.381Z,65.90
2023-02-16T02:05:49.268Z,65.90
2023-02-16T02:08:26.821Z,65.90
2023-02-16T02:11:04.319Z,65.90
2023-02-16T02:13:41.242Z,65.90
2023-02-16T02:16:11.192Z,65.90
2023-02-16T02:18:39.526Z,65.90
2023-02-16T02:21:49.141Z,65.90
2023-02-16T02:24:48.207Z,65.90
2023-02-16T02:27:23.323Z,65.90
2023-02-16T02:30:14.068Z,65.90
2023-02-16T02:32:57.378Z,66.00
2023-02-16T02:35:40.418Z,66.00
2023-02-16T02:38:14.739Z,66.00
2023-02-16T02:40:55.550Z,66.00
2023-02-16T02:43:30.648Z,66.00
2023-02-16T02:46:04.444Z,66.00
2023-02-16T02:48:32.688Z,66.00
2023-02-16T02:51:20.092Z,66.00
2023-02-16T02:54:13.566Z,66.00
2023-02-16T02:57:05.948Z,66.00
2023-02-16T02:59:56.646Z,66.10
2023-02-16T03:02:26.786Z,66.00
2023-02-16T03:04:58.664Z,66.10
2023-02-16T03:07:46.473Z,66.00
2023-02-16T03:10:33.444Z,66.10
2023-02-16T03:13:03.473Z,66.10
2023-02-16T03:15:35.753Z,66.00
2023-02-16T03:18:23.348Z,66.00
2023-02-16T03:21:09.306Z,66.10
2023-02-16T03:23:55.325Z,66.10
2023-02-16T03:26:42.799Z,66.10
2023-02-16T03:29:22.556Z,66.10
2023-02-16T03:31:54.645Z,66.10
2023-02-16T03:34:23.181Z,66.10
2023-02-16T03:36:54.840Z,66.10
2023-02-16T03:39:22.647Z,66.10
2023-02-16T03:41:52.866Z,66.10
2023-02-16T03:44:21.163Z,66.10
2023-02-16T03:46:50.591Z,66.10
2023-02-16T03:49:18.624Z,66.10
2023-02-16T03:51:46.505Z,66.10
2023-02-16T03:54:14.315Z,66.10
2023-02-16T03:56:42.121Z,66.10
2023-02-16T03:59:09.939Z,66.10
2023-02-16T04:01:37.774Z,66.20
2023-02-16T04:04:07.060Z,66.10
2023-02-16T04:06:34.869Z,66.20
2023-02-16T04:09:02.995Z,66.20
2023-02-16T04:11:48.275Z,66.20
2023-02-16T04:14:16.175Z,66.20
2023-02-16T04:16:43.997Z,66.20
2023-02-16T04:19:13.103Z,66.20
2023-02-16T04:21:42.813Z,66.20
2023-02-16T04:24:10.723Z,66.20
2023-02-16T04:26:38.625Z,66.10
2023-02-16T04:29:06.383Z,66.00
2023-02-16T04:31:34.373Z,65.90
2023-02-16T04:34:02.262Z,65.80
2023-02-16T04:36:31.585Z,65.80
2023-02-16T04:38:59.404Z,65.80
2023-02-16T04:41:27.398Z,65.70
2023-02-16T04:43:55.373Z,65.60
2023-02-16T04:46:23.794Z,65.80
2023-02-16T04:48:51.670Z,65.40
2023-02-16T04:51:19.489Z,65.30
2023-02-16T04:53:48.691Z,65.20
2023-02-16T04:56:16.566Z,65.20
2023-02-16T04:58:44.496Z,65.00
2023-02-16T05:01:20.334Z,64.90
2023-02-16T05:03:48.281Z,64.80
2023-02-16T05:06:17.877Z,64.70
2023-02-16T05:08:46.034Z,64.60
2023-02-16T05:11:32.658Z,64.50
2023-02-16T05:14:18.689Z,64.40
2023-02-16T05:16:47.247Z,64.40
2023-02-16T05:19:15.138Z,64.40
2023-02-16T05:21:42.908Z,64.40
2023-02-16T05:24:12.143Z,64.30
2023-02-16T05:26:41.325Z,64.20
2023-02-16T05:29:09.142Z,64.10
2023-02-16T05:31:37.091Z,64.00
2023-02-16T05:34:04.937Z,64.00
2023-02-16T05:36:33.038Z,63.90
2023-02-16T05:39:00.859Z,63.80
2023-02-16T05:41:28.814Z,63.70
2023-02-16T05:43:59.489Z,63.50
2023-02-16T05:46:29.092Z,63.50
2023-02-16T05:48:57.153Z,63.30
2023-02-16T05:51:24.947Z,63.20
2023-02-16T05:53:52.769Z,63.10
2023-02-16T05:56:21.967Z,62.90
2023-02-16T05:58:49.803Z,62.90
2023-02-16T06:01:19.275Z,62.80
2023-02-16T06:03:47.489Z,62.60
2023-02-16T06:06:15.604Z,62.50
2023-02-16T06:08:43.873Z,62.40
2023-02-16T06:11:32.084Z,62.40
2023-02-16T06:14:01.657Z,62.40
2023-02-16T06:16:32.212Z,62.40
2023-02-16T06:19:00.830Z,62.40
2023-02-16T06:21:29.614Z,62.30
2023-02-16T06:23:57.769Z,62.30
2023-02-16T06:26:25.614Z,62.20
2023-02-16T06:28:53.825Z,62.20
2023-02-16T06:31:22.101Z,62.20
2023-02-16T06:33:51.364Z,62.10
2023-02-16T06:36:19.291Z,62.00
2023-02-16T06:38:48.226Z,62.00
2023-02-16T06:41:30.933Z,61.90
2023-02-16T06:43:59.972Z,61.90
2023-02-16T06:46:28.469Z,61.80
2023-02-16T06:48:57.713Z,61.80
2023-02-16T06:51:25.692Z,61.70
2023-02-16T06:53:53.638Z,61.70
2023-02-16T06:56:21.904Z,61.70
2023-02-16T06:58:50.243Z,61.70
2023-02-16T07:01:22.805Z,61.60
2023-02-16T07:03:51.514Z,61.60
2023-02-16T07:06:21.284Z,61.50
2023-02-16T07:08:49.121Z,61.40
2023-02-16T07:11:17.240Z,61.30
2023-02-16T07:13:45.123Z,61.20
2023-02-16T07:16:13.888Z,61.30
2023-02-16T07:18:41.839Z,61.30
2023-02-16T07:21:09.668Z,61.30
2023-02-16T07:23:38.816Z,61.20
2023-02-16T07:26:06.594Z,61.40
2023-02-16T07:28:34.445Z,61.20
2023-02-16T07:31:08.404Z,61.10
2023-02-16T07:33:36.431Z,61.20
2023-02-16T07:36:04.927Z,61.20
2023-02-16T07:38:32.735Z,61.30
2023-02-16T07:41:02.503Z,61.20
2023-02-16T07:43:30.535Z,61.30
2023-02-16T07:45:58.384Z,61.40
2023-02-16T07:48:26.229Z,61.40
2023-02-16T07:50:54.113Z,61.50
2023-02-16T07:53:21.906Z,61.50
2023-02-16T07:55:49.737Z,61.60
2023-02-16T07:58:27.987Z,61.70
2023-02-16T08:00:57.646Z,61.60
2023-02-16T08:03:25.616Z,61.80
2023-02-16T08:05:53.534Z,61.90
2023-02-16T08:08:21.295Z,61.90
2023-02-16T08:10:49.143Z,61.90
2023-02-16T08:13:18.292Z,62.00
2023-02-16T08:15:46.279Z,62.10
2023-02-16T08:18:14.202Z,62.00
2023-02-16T08:21:03.430Z,62.00
2023-02-16T08:23:29.914Z,61.90
2023-02-16T08:25:58.949Z,61.90
2023-02-16T08:28:29.355Z,61.70
2023-02-16T08:30:57.553Z,61.80
2023-02-16T08:33:25.456Z,61.80
2023-02-16T08:35:53.258Z,62.60
2023-02-16T08:38:21.708Z,61.90
2023-02-16T08:40:49.617Z,62.00
2023-02-16T08:43:17.522Z,62.20
2023-02-16T08:45:48.487Z,62.50
2023-02-16T08:48:17.731Z,62.50
2023-02-16T08:50:53.160Z,62.70
2023-02-16T08:53:21.231Z,62.90
2023-02-16T08:55:53.151Z,62.60
2023-02-16T08:58:21.212Z,62.30
2023-02-16T09:00:50.598Z,62.00
2023-02-16T09:03:18.924Z,61.60
2023-02-16T09:05:47.545Z,61.90
2023-02-16T09:08:15.755Z,61.80
2023-02-16T09:10:43.872Z,62.10
2023-02-16T09:13:14.705Z,62.30
2023-02-16T09:15:43.015Z,62.40
2023-02-16T09:18:13.961Z,62.50
2023-02-16T09:20:45.657Z,62.80
2023-02-16T09:23:14.715Z,63.00
2023-02-16T09:25:42.653Z,63.10
2023-02-16T09:28:11.428Z,63.20
2023-02-16T09:30:40.334Z,63.20
2023-02-16T09:33:08.264Z,63.20
2023-02-16T09:35:39.561Z,63.40
2023-02-16T09:38:07.839Z,63.50
2023-02-16T09:40:37.500Z,63.60
2023-02-16T09:43:09.375Z,64.50
2023-02-16T09:45:43.519Z,63.70
2023-02-16T09:48:22.819Z,63.70
2023-02-16T09:50:55.361Z,63.70
2023-02-16T09:53:29.294Z,63.70
2023-02-16T09:56:06.247Z,63.80
2023-02-16T09:58:41.636Z,63.80
2023-02-16T10:01:20.612Z,63.80
2023-02-16T10:04:00.603Z,63.70
2023-02-16T10:06:49.380Z,63.80
2023-02-16T10:09:19.506Z,63.70
2023-02-16T10:11:54.346Z,63.70
2023-02-16T10:14:31.565Z,63.70
2023-02-16T10:17:07.596Z,63.60
2023-02-16T10:19:40.617Z,63.70
2023-02-16T10:22:17.608Z,63.70
2023-02-16T10:24:53.776Z,63.60
2023-02-16T10:27:23.179Z,63.70
2023-02-16T10:29:50.967Z,63.80
2023-02-16T10:32:26.738Z,63.90
2023-02-16T10:35:04.574Z,64.10
2023-02-16T10:38:00.676Z,64.20
2023-02-16T10:40:35.208Z,64.50
2023-02-16T10:43:12.399Z,64.60
2023-02-16T10:45:52.003Z,64.60
2023-02-16T10:48:21.571Z,64.90
2023-02-16T10:50:56.980Z,65.10
2023-02-16T10:53:38.005Z,64.80
2023-02-16T10:56:27.308Z,64.50
2023-02-16T10:58:55.620Z,64.40
2023-02-16T11:01:33.826Z,64.40
2023-02-16T11:04:01.726Z,64.60
2023-02-16T11:06:29.564Z,64.50
2023-02-16T11:21:56.242Z,64.00
2023-02-16T11:24:29.965Z,63.70
2023-02-16T11:27:03.369Z,63.50
2023-02-16T11:29:31.585Z,63.50
2023-02-16T11:32:00.743Z,63.50
2023-02-16T11:34:33.901Z,63.50
2023-02-16T11:37:04.636Z,63.50
2023-02-16T11:39:38.196Z,63.40
2023-02-16T11:42:09.624Z,63.40
2023-02-16T11:44:41.790Z,63.40
2023-02-16T11:47:24.437Z,63.30
2023-02-16T11:50:15.634Z,62.90
2023-02-16T11:52:43.577Z,62.90
2023-02-16T11:55:21.288Z,63.10
2023-02-16T11:57:49.144Z,63.20
2023-02-16T12:00:19.250Z,64.40
2023-02-16T12:03:10.983Z,64.80
2023-02-16T12:05:48.994Z,64.80
2023-02-16T12:08:32.229Z,64.90
2023-02-16T12:11:14.299Z,65.00
2023-02-16T12:13:51.200Z,65.30
2023-02-16T12:16:30.710Z,65.60
2023-02-16T12:19:16.780Z,65.50
2023-02-16T12:21:48.199Z,65.50
2023-02-16T12:24:31.945Z,66.70
2023-02-16T12:27:03.596Z,65.80
2023-02-16T12:29:41.393Z,65.90
2023-02-16T12:32:23.809Z,65.80
2023-02-16T12:35:03.624Z,65.90
2023-02-16T12:37:41.281Z,65.80
2023-02-16T12:40:21.135Z,65.90
2023-02-16T12:43:03.816Z,65.80
2023-02-16T12:45:36.496Z,65.90
2023-02-16T12:48:15.846Z,66.20
2023-02-16T12:50:45.943Z,66.30
2023-02-16T12:53:23.881Z,66.20
2023-02-16T12:55:55.199Z,66.20
2023-02-16T12:58:29.772Z,66.30
2023-02-16T13:01:01.499Z,66.40
2023-02-16T13:03:35.906Z,66.40
2023-02-16T13:06:14.398Z,66.30
2023-02-16T13:08:46.414Z,66.20
2023-02-16T13:11:20.847Z,66.20
2023-02-16T13:13:53.338Z,66.20
2023-02-16T13:16:30.585Z,66.20
2023-02-16T13:18:58.925Z,66.10
2023-02-16T13:22:02.045Z,66.10
2023-02-16T13:24:44.371Z,66.10
2023-02-16T13:27:32.592Z,66.30
2023-02-16T13:30:27.616Z,66.30
2023-02-16T13:33:14.419Z,66.30
2023-02-16T13:36:13.738Z,66.30
2023-02-16T13:39:02.157Z,66.30
2023-02-16T13:41:51.390Z,66.20
2023-02-16T13:44:21.854Z,66.30
2023-02-16T13:46:53.892Z,66.30
2023-02-16T13:49:32.262Z,66.30
2023-02-16T13:52:00.857Z,66.30
2023-02-16T13:54:32.067Z,66.40
2023-02-16T13:57:04.037Z,66.40
2023-02-16T14:00:05.658Z,66.40
2023-02-16T14:03:15.173Z,66.50
2023-02-16T14:05:45.239Z,66.70
2023-02-16T14:08:22.226Z,66.70
2023-02-16T14:11:03.684Z,66.70
2023-02-16T14:13:34.983Z,66.70
2023-02-16T14:16:08.624Z,66.70
2023-02-16T14:18:43.913Z,66.70
2023-02-16T14:21:21.970Z,66.60
2023-02-16T14:23:56.618Z,66.60
2023-02-16T14:26:24.866Z,66.70
2023-02-16T14:29:18.628Z,66.70
2023-02-16T14:31:53.452Z,66.80
2023-02-16T14:34:27.331Z,66.80
2023-02-16T14:37:35.106Z,66.80
2023-02-16T14:40:14.052Z,66.90
2023-02-16T14:42:49.673Z,67.00
2023-02-16T14:45:53.961Z,67.10
2023-02-16T14:48:38.382Z,67.00
2023-02-16T14:51:32.815Z,67.00
2023-02-16T14:54:17.487Z,67.00
2023-02-16T14:56:46.589Z,67.20
2023-02-16T14:59:25.198Z,67.20
2023-02-16T15:01:53.222Z,67.20
2023-02-16T15:04:32.253Z,67.40
2023-02-16T15:07:04.879Z,67.40
2023-02-16T15:09:35.501Z,67.50
2023-02-16T15:12:24.028Z,67.40
2023-02-16T15:14:54.497Z,66.90
2023-02-16T15:17:30.848Z,66.90
2023-02-16T15:20:04.506Z,66.90
2023-02-16T15:22:33.788Z,67.00
2023-02-16T15:25:05.106Z,67.00
2023-02-16T15:27:33.810Z,67.10
2023-02-16T15:30:21.248Z,67.10
2023-02-16T15:32:54.732Z,67.10
2023-02-16T15:35:32.403Z,67.10
2023-02-16T15:38:03.584Z,67.20
2023-02-16T15:40:32.765Z,67.30
2023-02-16T15:43:08.234Z,67.40
2023-02-16T15:45:38.621Z,67.40
2023-02-16T15:48:21.421Z,67.40
2023-02-16T15:50:50.611Z,67.40
2023-02-16T15:53:34.813Z,67.50
2023-02-16T15:56:05.327Z,67.60
2023-02-16T15:58:33.761Z,67.60
2023-02-16T16:01:01.982Z,67.60
2023-02-16T16:03:30.373Z,67.60
2023-02-16T16:06:04.949Z,67.30
2023-02-16T16:08:34.522Z,67.20
2023-02-16T16:11:02.913Z,67.60
2023-02-16T16:13:32.802Z,67.50
2023-02-16T16:16:04.589Z,67.50
2023-02-16T16:18:39.527Z,68.30
2023-02-16T16:21:24.636Z,67.60
2023-02-16T16:24:02.711Z,67.60
2023-02-16T16:26:35.114Z,67.70
2023-02-16T16:29:03.391Z,67.70
2023-02-16T16:31:34.185Z,67.80
2023-02-16T16:34:04.101Z,67.80
2023-02-16T16:36:34.125Z,67.90
2023-02-16T16:39:29.336Z,68.00
2023-02-16T16:42:16.950Z,68.00
2023-02-16T16:44:55.839Z,68.10
2023-02-16T16:47:27.634Z,68.10
2023-02-16T16:49:57.600Z,68.10
2023-02-16T16:52:47.479Z,68.20
2023-02-16T16:55:31.291Z,68.20
2023-02-16T16:58:01.243Z,68.30
2023-02-16T17:00:34.095Z,68.40
2023-02-16T17:03:02.272Z,68.30
2023-02-16T17:05:30.097Z,68.30
2023-02-16T17:07:58.008Z,68.40
2023-02-16T17:10:27.342Z,68.40
2023-02-16T17:12:58.914Z,68.50
2023-02-16T17:15:36.025Z,68.40
2023-02-16T17:18:05.185Z,68.60
2023-02-16T17:20:33.165Z,68.50
2023-02-16T17:23:04.520Z,68.50
2023-02-16T17:25:35.859Z,68.70
2023-02-16T17:28:04.598Z,68.70
2023-02-16T17:30:32.988Z,68.70
2023-02-16T17:33:00.907Z,68.80
2023-02-16T17:35:29.288Z,68.80
2023-02-16T17:37:57.128Z,68.70
2023-02-16T17:40:25.958Z,68.60
2023-02-16T17:42:55.057Z,68.50
2023-02-16T17:45:23.492Z,68.20
2023-02-16T17:47:52.763Z,68.10
2023-02-16T17:50:21.351Z,68.00
2023-02-16T17:52:49.244Z,68.10
2023-02-16T17:55:17.296Z,68.30
2023-02-16T17:57:45.070Z,68.20
2023-02-16T18:00:20.641Z,68.30
2023-02-16T18:02:48.853Z,68.30
2023-02-16T18:05:16.760Z,68.30
2023-02-16T18:07:44.525Z,68.20
2023-02-16T18:10:19.428Z,69.10
2023-02-16T18:12:47.197Z,68.40
2023-02-16T18:15:16.545Z,68.50
2023-02-16T18:17:44.312Z,68.50
2023-02-16T18:20:16.006Z,68.60
2023-02-16T18:22:43.780Z,68.60
2023-02-16T18:25:11.564Z,68.70
2023-02-16T18:27:39.433Z,68.80
2023-02-16T18:30:09.859Z,69.00
2023-02-16T18:32:39.151Z,69.00
2023-02-16T18:35:07.490Z,69.30
2023-02-16T18:37:35.535Z,69.60
2023-02-16T18:40:03.522Z,69.70
2023-02-16T18:42:31.304Z,69.90
2023-02-16T18:44:59.134Z,70.00
2023-02-16T18:47:27.020Z,70.10
2023-02-16T18:49:56.189Z,70.10
2023-02-16T18:52:24.400Z,70.10
2023-02-16T18:54:52.467Z,70.10
2023-02-16T18:57:21.786Z,70.20
2023-02-16T18:59:49.639Z,70.30
2023-02-16T19:02:17.436Z,70.30
2023-02-16T19:04:45.274Z,70.40
2023-02-16T19:07:14.429Z,70.40
2023-02-16T19:09:42.264Z,70.40
2023-02-16T19:12:10.017Z,70.50
2023-02-16T19:14:37.985Z,70.50
2023-02-16T19:17:05.844Z,70.50
2023-02-16T19:19:34.235Z,70.60
2023-02-16T19:22:02.038Z,70.60
2023-02-16T19:24:31.632Z,70.50
2023-02-16T19:26:59.417Z,70.50
2023-02-16T19:29:27.192Z,70.50
2023-02-16T19:31:55.161Z,70.60
2023-02-16T19:34:23.076Z,70.60
2023-02-16T19:36:50.840Z,70.60
2023-02-16T19:39:18.646Z,70.60
2023-02-16T19:41:47.749Z,70.80
2023-02-16T19:44:15.865Z,70.80
2023-02-16T19:46:43.866Z,70.90
2023-02-16T19:49:14.407Z,70.90
2023-02-16T19:51:42.340Z,70.80
2023-02-16T19:54:10.166Z,71.60
2023-02-16T19:56:40.430Z,71.00
2023-02-16T19:59:10.111Z,71.00
2023-02-16T20:01:38.018Z,71.20
2023-02-16T20:04:05.923Z,71.30
2023-02-16T20:06:37.200Z,71.40
2023-02-16T20:09:05.208Z,71.40
2023-02-16T20:11:33.572Z,71.40
2023-02-16T20:14:02.118Z,71.40
2023-02-16T20:16:31.743Z,71.40
2023-02-16T20:19:00.251Z,71.60
2023-02-16T20:21:30.282Z,71.40
2023-02-16T20:24:00.225Z,71.30
2023-02-16T20:26:30.966Z,71.30
2023-02-16T20:29:00.229Z,71.30
2023-02-16T20:31:32.087Z,71.80
2023-02-16T20:33:59.991Z,71.70
2023-02-16T20:36:27.911Z,71.00
2023-02-16T20:38:55.889Z,70.80
2023-02-16T20:41:23.887Z,70.60
2023-02-16T20:43:52.018Z,70.80
2023-02-16T20:46:23.384Z,70.90
2023-02-16T20:48:53.866Z,71.10
2023-02-16T20:51:21.792Z,71.20
2023-02-16T20:53:49.774Z,71.20
2023-02-16T20:56:21.302Z,71.40
2023-02-16T20:58:51.548Z,71.40
2023-02-16T21:01:22.775Z,71.40
2023-02-16T21:03:52.784Z,71.40
2023-02-16T21:06:21.068Z,71.40
2023-02-16T21:08:49.293Z,71.40
2023-02-16T21:11:17.728Z,71.40
2023-02-16T21:13:45.549Z,71.50
2023-02-16T21:16:14.630Z,71.50
2023-02-16T21:18:42.913Z,71.50
2023-02-16T21:21:15.628Z,71.50
2023-02-16T21:23:43.933Z,71.60
2023-02-16T21:26:12.187Z,71.50
2023-02-16T21:28:40.396Z,71.40
2023-02-16T21:31:10.585Z,71.30
2023-02-16T21:33:39.143Z,71.30
2023-02-16T21:36:08.809Z,71.30
2023-02-16T21:38:39.405Z,71.30
2023-02-16T21:41:26.717Z,71.40
2023-02-16T21:43:57.595Z,71.40
2023-02-16T21:46:25.437Z,71.50
2023-02-16T21:48:52.460Z,72.20
2023-02-16T21:51:22.263Z,71.50
2023-02-16T21:53:51.859Z,71.50
2023-02-16T21:56:34.566Z,71.80
2023-02-16T21:59:03.460Z,72.00
2023-02-16T22:01:33.534Z,72.00
2023-02-16T22:04:02.215Z,71.80
2023-02-16T22:06:33.094Z,71.30
2023-02-16T22:09:04.922Z,71.20
2023-02-16T22:11:32.869Z,71.90
2023-02-16T22:14:01.833Z,71.20
2023-02-16T22:16:30.949Z,71.30
2023-02-16T22:18:59.626Z,71.50
2023-02-16T22:21:27.832Z,71.60
2023-02-16T22:23:56.263Z,71.70
2023-02-16T22:26:27.992Z,71.80
2023-02-16T22:28:56.423Z,71.90
2023-02-16T22:31:26.246Z,71.90
2023-02-16T22:33:58.066Z,72.00
2023-02-16T22:36:26.486Z,73.00
2023-02-16T22:38:55.365Z,70.70
2023-02-16T22:41:25.224Z,73.00
2023-02-16T22:43:54.433Z,74.00
2023-02-16T22:46:23.725Z,76.80
2023-02-16T22:48:52.598Z,77.00
2023-02-16T22:51:22.099Z,77.40
2023-02-16T22:53:50.109Z,78.00
2023-02-16T22:56:19.631Z,77.60
2023-02-16T22:58:49.056Z,78.40
2023-02-16T23:01:19.087Z,78.20
2023-02-16T23:03:47.701Z,79.30
2023-02-16T23:06:17.159Z,79.50
2023-02-16T23:08:45.902Z,78.80
2023-02-16T23:11:14.337Z,79.10
2023-02-16T23:13:42.181Z,78.80
2023-02-16T23:16:14.260Z,79.30
2023-02-16T23:18:43.274Z,79.80
2023-02-16T23:21:16.795Z,79.20
2023-02-16T23:23:44.761Z,79.40
2023-02-16T23:26:12.884Z,79.90
2023-02-16T23:28:41.833Z,79.90
2023-02-16T23:31:12.583Z,79.80
2023-02-16T23:33:40.801Z,80.70
2023-02-16T23:36:09.312Z,80.00
2023-02-16T23:38:37.146Z,80.10
2023-02-16T23:41:07.094Z,79.50
2023-02-16T23:43:35.298Z,80.20
2023-02-16T23:46:03.353Z,80.30
2023-02-16T23:48:32.973Z,80.10
2023-02-16T23:51:00.925Z,80.20
2023-02-16T23:53:29.413Z,80.50
2023-02-16T23:56:01.388Z,80.70
2023-02-16T23:58:30.011Z,80.80
